createdAt,value
2019-02-06T00:00:00.996Z,38.33
2019-02-06T00:02:31.404Z,40.90
2019-02-06T00:05:01.636Z,36.87
2019-02-06T00:07:32.039Z,37.43
2019-02-06T00:10:02.556Z,39.30
2019-02-06T00:12:32.794Z,36.33
2019-02-06T00:15:03.113Z,40.97
2019-02-06T00:17:59.748Z,45.00
2019-02-06T00:20:39.743Z,39.43
2019-02-06T00:23:52.160Z,46.20
2019-02-06T00:26:23.756Z,40.03
2019-02-06T00:29:21.882Z,41.50
2019-02-06T00:32:20.863Z,42.23
2019-02-06T00:35:00.469Z,43.10
2019-02-06T00:37:33.667Z,40.07
2019-02-06T00:40:15.916Z,40.47
2019-02-06T00:43:00.132Z,40.20
2019-02-06T00:45:35.502Z,41.67
2019-02-06T00:48:27.064Z,40.37
2019-02-06T00:50:57.449Z,44.13
2019-02-06T00:53:27.769Z,47.80
2019-02-06T00:55:58.110Z,42.77
2019-02-06T01:00:54.380Z,42.20
2019-02-06T01:13:53.042Z,43.27
2019-02-06T01:16:51.676Z,50.33
2019-02-06T01:19:22.137Z,41.97
2019-02-06T01:21:52.432Z,43.23
2019-02-06T01:24:22.715Z,44.73
2019-02-06T01:26:53.030Z,45.10
2019-02-06T01:29:23.298Z,42.63
2019-02-06T01:32:38.584Z,48.77
2019-02-06T01:35:10.024Z,45.07
2019-02-06T01:37:40.401Z,45.83
2019-02-06T01:40:23.068Z,47.23
2019-02-06T01:43:00.876Z,50.50
2019-02-06T01:45:42.906Z,48.33
2019-02-06T01:51:28.028Z,47.27
2019-02-06T01:57:23.347Z,51.17
2019-02-06T02:00:10.706Z,54.00
2019-02-06T02:03:05.228Z,50.67
2019-02-06T02:06:01.949Z,58.57
2019-02-06T02:08:25.996Z,55.07
2019-02-06T02:11:00.476Z,53.50
2019-02-06T02:13:37.098Z,50.63
2019-02-06T02:16:21.031Z,63.50
2019-02-06T02:18:55.306Z,55.70
2019-02-06T02:21:28.035Z,63.70
2019-02-06T02:23:59.543Z,62.13
2019-02-06T02:26:30.636Z,59.50
2019-02-06T02:29:01.789Z,61.37
2019-02-06T02:31:35.214Z,71.13
2019-02-06T02:34:06.977Z,65.73
2019-02-06T02:36:38.154Z,63.10
2019-02-06T02:39:12.759Z,68.27
2019-02-06T02:41:43.958Z,66.40
2019-02-06T02:44:19.837Z,69.03
2019-02-06T02:46:53.757Z,66.43
2019-02-06T02:49:24.052Z,70.70
2019-02-06T02:51:54.420Z,74.70
2019-02-06T02:54:24.771Z,68.53
2019-02-06T02:56:54.997Z,73.13
2019-02-06T02:59:25.324Z,70.13
2019-02-06T03:05:26.021Z,70.47
2019-02-06T03:08:22.660Z,72.70
2019-02-06T03:15:14.947Z,79.60
2019-02-06T03:18:13.891Z,73.13
2019-02-06T03:21:15.329Z,81.50
2019-02-06T03:24:20.408Z,69.97
2019-02-06T03:27:13.137Z,77.97
2019-02-06T03:30:29.685Z,76.70
2019-02-06T03:33:36.713Z,85.93
2019-02-06T03:36:40.377Z,82.27
2019-02-06T03:39:48.939Z,84.50
2019-02-06T03:42:37.579Z,84.97
2019-02-06T03:45:26.753Z,77.53
2019-02-06T03:48:09.302Z,93.57
2019-02-06T03:50:56.871Z,87.03
2019-02-06T03:57:03.637Z,75.07
2019-02-06T03:59:39.836Z,83.53
2019-02-06T04:02:18.487Z,81.57
2019-02-06T04:04:56.861Z,86.13
2019-02-06T04:07:34.257Z,88.03
2019-02-06T04:10:09.579Z,82.93
2019-02-06T04:12:46.651Z,85.23
2019-02-06T04:15:25.008Z,84.63
2019-02-06T04:17:59.177Z,79.83
2019-02-06T04:20:29.676Z,85.10
2019-02-06T04:22:59.946Z,87.63
2019-02-06T04:25:30.554Z,80.97
2019-02-06T04:28:00.926Z,80.53
2019-02-06T04:30:31.201Z,79.20
2019-02-06T04:33:02.211Z,68.20
2019-02-06T04:35:32.540Z,77.97
2019-02-06T04:38:02.867Z,86.10
2019-02-06T04:40:37.145Z,75.63
2019-02-06T04:43:10.590Z,86.67
2019-02-06T04:45:45.691Z,81.20
2019-02-06T04:48:19.498Z,75.10
2019-02-06T04:50:55.391Z,78.90
2019-02-06T04:53:26.813Z,91.30
2019-02-06T04:56:24.104Z,90.03
2019-02-06T04:59:00.672Z,88.17
2019-02-06T05:01:36.572Z,77.23
2019-02-06T05:04:16.145Z,85.47
2019-02-06T05:06:51.790Z,64.07
2019-02-06T05:09:22.570Z,72.70
2019-02-06T05:11:52.961Z,84.60
2019-02-06T05:14:23.230Z,85.63
2019-02-06T05:16:53.556Z,74.10
2019-02-06T05:19:23.703Z,78.40
2019-02-06T05:21:54.038Z,64.80
2019-02-06T05:24:24.267Z,77.27
2019-02-06T05:33:53.612Z,81.20
2019-02-06T05:36:56.124Z,81.20
2019-02-06T05:39:26.735Z,70.60
2019-02-06T05:41:56.976Z,73.63
2019-02-06T05:44:28.032Z,80.37
2019-02-06T05:46:58.406Z,82.33
2019-02-06T05:49:28.683Z,80.43
2019-02-06T05:51:59.273Z,80.00
2019-02-06T05:54:29.514Z,89.20
2019-02-06T05:56:59.800Z,75.17
2019-02-06T05:59:30.504Z,78.60
2019-02-06T06:02:00.795Z,80.73
2019-02-06T06:04:31.363Z,65.23
2019-02-06T06:08:26.800Z,68.93
2019-02-06T06:10:57.256Z,58.03
2019-02-06T06:13:27.534Z,70.10
2019-02-06T06:15:57.906Z,74.50
2019-02-06T06:18:28.158Z,77.60
2019-02-06T06:20:58.566Z,81.60
2019-02-06T06:23:28.850Z,55.53
2019-02-06T06:25:59.184Z,60.77
2019-02-06T06:28:29.686Z,64.87
2019-02-06T06:31:00.004Z,62.93
2019-02-06T06:33:30.255Z,63.63
2019-02-06T06:36:13.641Z,79.87
2019-02-06T06:38:48.164Z,48.17
2019-02-06T06:42:05.014Z,49.77
2019-02-06T06:45:10.887Z,64.63
2019-02-06T06:47:57.740Z,74.67
2019-02-06T06:50:28.415Z,57.87
2019-02-06T06:52:58.694Z,70.60
2019-02-06T06:55:29.165Z,60.17
2019-02-06T06:57:59.465Z,71.80
2019-02-06T07:00:31.349Z,75.63
2019-02-06T07:03:01.723Z,64.90
2019-02-06T07:06:46.685Z,70.87
2019-02-06T07:09:14.584Z,52.47
2019-02-06T07:11:45.386Z,66.17
2019-02-06T07:14:16.382Z,43.60
2019-02-06T07:16:46.782Z,53.07
2019-02-06T07:19:17.203Z,64.67
2019-02-06T07:24:27.862Z,61.87
2019-02-06T07:27:11.453Z,56.50
2019-02-06T07:29:38.107Z,56.57
2019-02-06T07:32:08.775Z,50.63
2019-02-06T07:34:39.218Z,53.60
2019-02-06T07:37:10.143Z,51.67
2019-02-06T07:40:29.244Z,51.10
2019-02-06T07:43:17.725Z,45.17
2019-02-06T07:46:08.159Z,43.07
2019-02-06T07:49:19.764Z,43.93
2019-02-06T07:51:52.382Z,47.07
2019-02-06T07:54:38.541Z,44.53
2019-02-06T07:57:36.910Z,49.33
2019-02-06T08:00:30.149Z,42.57
2019-02-06T08:03:36.225Z,49.57
2019-02-06T08:06:34.594Z,48.20
2019-02-06T08:09:07.142Z,44.63
2019-02-06T08:11:39.837Z,41.63
2019-02-06T08:14:10.348Z,44.23
2019-02-06T08:16:40.750Z,39.97
2019-02-06T08:19:11.515Z,42.00
2019-02-06T08:21:49.763Z,39.00
2019-02-06T08:24:16.544Z,38.77
2019-02-06T08:26:47.683Z,41.10
2019-02-06T08:29:18.114Z,37.30
2019-02-06T08:31:50.969Z,36.90
2019-02-06T08:38:51.946Z,40.10
2019-02-06T08:49:10.902Z,36.63
2019-02-06T08:51:40.962Z,37.10
2019-02-06T08:54:11.552Z,35.83
2019-02-06T08:56:41.880Z,35.80
2019-02-06T08:59:12.206Z,35.73
2019-02-06T09:03:57.028Z,36.50
2019-02-06T09:06:52.855Z,35.67
2019-02-06T09:09:23.280Z,39.00
2019-02-06T09:11:53.534Z,39.07
2019-02-06T09:14:23.799Z,35.60
2019-02-06T09:16:54.100Z,36.73
2019-02-06T09:19:24.498Z,37.17
2019-02-06T09:21:54.942Z,38.43
2019-02-06T09:24:25.322Z,34.73
2019-02-06T09:26:55.649Z,35.77
2019-02-06T09:29:25.986Z,34.03
2019-02-06T09:39:56.335Z,37.53
2019-02-06T09:42:26.659Z,35.67
2019-02-06T09:44:56.908Z,37.93
2019-02-06T09:47:27.260Z,37.67
2019-02-06T09:49:57.500Z,41.07
2019-02-06T09:52:28.908Z,38.53
2019-02-06T09:59:52.736Z,37.33
2019-02-06T10:03:19.671Z,38.93
2019-02-06T10:05:50.143Z,37.00
2019-02-06T10:08:20.392Z,38.23
2019-02-06T10:10:50.712Z,37.23
2019-02-06T10:13:20.954Z,37.13
2019-02-06T10:19:54.400Z,40.20
2019-02-06T10:22:24.749Z,39.93
2019-02-06T10:36:57.177Z,38.03
2019-02-06T10:52:19.886Z,39.63
2019-02-06T10:54:50.671Z,39.60
2019-02-06T11:05:18.445Z,40.33
2019-02-06T11:07:48.733Z,35.93
2019-02-06T11:11:05.393Z,37.27
2019-02-06T11:13:35.832Z,38.47
2019-02-06T11:17:09.761Z,38.50
2019-02-06T11:19:43.031Z,36.77
2019-02-06T11:23:27.237Z,38.37
2019-02-06T11:25:58.096Z,37.60
2019-02-06T11:28:28.481Z,33.80
2019-02-06T11:34:11.304Z,34.23
2019-02-06T11:36:41.677Z,34.40
2019-02-06T11:42:37.591Z,40.20
2019-02-06T11:45:09.410Z,39.27
2019-02-06T11:47:39.672Z,34.20
2019-02-06T11:50:12.363Z,32.60
2019-02-06T11:52:43.271Z,33.07
2019-02-06T11:55:16.786Z,37.93
2019-02-06T12:03:59.235Z,36.23
2019-02-06T12:06:29.745Z,37.80
2019-02-06T12:09:00.085Z,35.77
2019-02-06T12:11:39.329Z,36.07
2019-02-06T12:15:18.822Z,32.33
2019-02-06T12:18:54.930Z,26.27
2019-02-06T12:21:26.100Z,35.33
2019-02-06T12:28:07.886Z,33.47
2019-02-06T12:34:17.187Z,33.47
2019-02-06T12:36:47.485Z,33.90
2019-02-06T12:39:17.812Z,34.47
2019-02-06T12:41:48.094Z,34.97
2019-02-06T12:44:19.031Z,34.73
2019-02-06T12:46:49.607Z,33.60
2019-02-06T12:49:20.113Z,36.93
2019-02-06T12:51:52.443Z,34.03
2019-02-06T13:02:15.737Z,30.90
2019-02-06T13:04:45.476Z,33.00
2019-02-06T13:07:47.334Z,35.53
2019-02-06T13:10:17.691Z,34.23
2019-02-06T13:13:33.620Z,33.63
2019-02-06T13:16:10.410Z,31.90
2019-02-06T13:18:41.952Z,30.43
2019-02-06T13:21:15.193Z,32.50
2019-02-06T13:23:51.114Z,29.10
2019-02-06T13:26:44.395Z,28.30
2019-02-06T13:29:21.726Z,25.63
2019-02-06T13:32:22.660Z,26.40
2019-02-06T13:34:56.630Z,21.93
2019-02-06T13:37:31.650Z,19.43
2019-02-06T13:39:59.671Z,25.73
2019-02-06T13:42:29.930Z,25.27
2019-02-06T13:45:00.334Z,21.73
2019-02-06T13:47:30.965Z,24.70
2019-02-06T13:50:01.308Z,22.37
2019-02-06T13:52:31.656Z,23.33
2019-02-06T13:55:02.016Z,20.67
2019-02-06T13:57:34.105Z,20.10
2019-02-06T14:00:25.888Z,17.90
2019-02-06T14:03:05.936Z,18.97
2019-02-06T14:05:48.838Z,18.90
2019-02-06T14:08:20.989Z,20.33
2019-02-06T14:11:00.336Z,17.00
2019-02-06T14:13:31.266Z,18.60
2019-02-06T14:16:02.784Z,20.33
2019-02-06T14:18:37.967Z,22.27
2019-02-06T14:21:24.977Z,17.87
2019-02-06T14:24:57.040Z,18.40
2019-02-06T14:28:24.760Z,15.10
2019-02-06T14:31:40.725Z,19.17
2019-02-06T14:34:58.901Z,15.03
2019-02-06T14:41:26.114Z,16.70
2019-02-06T14:44:21.010Z,17.73
2019-02-06T14:47:39.260Z,17.33
2019-02-06T14:50:56.032Z,15.00
2019-02-06T14:54:14.693Z,18.40
2019-02-06T14:57:20.041Z,19.00
2019-02-06T15:00:32.478Z,16.93
2019-02-06T15:04:04.302Z,19.53
2019-02-06T15:08:09.061Z,19.60
2019-02-06T15:10:50.292Z,17.47
2019-02-06T15:14:33.947Z,17.10
2019-02-06T15:17:44.121Z,17.60
2019-02-06T15:21:06.146Z,19.20
2019-02-06T15:24:09.815Z,20.90
2019-02-06T15:27:42.870Z,24.50
2019-02-06T15:30:50.564Z,21.93
2019-02-06T15:33:55.081Z,21.10
2019-02-06T15:37:14.165Z,20.77
2019-02-06T15:40:37.329Z,20.80
2019-02-06T15:43:37.845Z,19.40
2019-02-06T15:47:00.607Z,18.77
2019-02-06T15:49:58.359Z,20.77
2019-02-06T15:53:10.824Z,17.93
2019-02-06T15:56:16.861Z,15.83
2019-02-06T15:59:19.122Z,18.00
2019-02-06T16:02:54.389Z,20.83
2019-02-06T16:06:07.480Z,18.60
2019-02-06T16:08:57.544Z,18.03
2019-02-06T16:11:45.875Z,17.10
2019-02-06T16:15:14.310Z,17.10
2019-02-06T16:18:31.509Z,18.10
2019-02-06T16:21:55.079Z,19.33
2019-02-06T16:25:09.372Z,20.50
2019-02-06T16:28:27.990Z,18.40
2019-02-06T16:31:27.842Z,18.37
2019-02-06T16:34:38.393Z,20.30
2019-02-06T16:37:54.906Z,21.87
2019-02-06T16:41:13.899Z,16.97
2019-02-06T16:44:31.982Z,20.30
2019-02-06T16:51:09.793Z,18.17
2019-02-06T16:54:23.776Z,19.27
2019-02-06T16:57:45.017Z,18.17
2019-02-06T17:00:50.613Z,19.13
2019-02-06T17:04:13.361Z,23.60
2019-02-06T17:07:05.793Z,19.40
2019-02-06T17:10:07.881Z,21.53
2019-02-06T17:13:11.958Z,22.80
2019-02-06T17:16:37.501Z,16.83
2019-02-06T17:19:58.204Z,22.33
2019-02-06T17:22:57.463Z,26.27
2019-02-06T17:26:13.659Z,26.80
2019-02-06T17:29:51.941Z,23.37
2019-02-06T17:33:09.363Z,21.90
2019-02-06T17:39:47.082Z,23.77
2019-02-06T17:42:38.946Z,38.03
2019-02-06T17:45:30.054Z,37.87
2019-02-06T17:56:02.866Z,18.07
2019-02-06T18:02:10.513Z,22.93
2019-02-06T18:05:17.657Z,20.27
2019-02-06T18:07:54.650Z,22.40
2019-02-06T18:10:32.221Z,21.67
2019-02-06T18:13:48.302Z,24.83
2019-02-06T18:16:27.460Z,23.37
2019-02-06T18:19:22.401Z,26.27
2019-02-06T18:22:23.882Z,18.33
2019-02-06T18:25:05.042Z,22.63
2019-02-06T18:28:00.150Z,25.67
2019-02-06T18:30:36.631Z,25.07
2019-02-06T18:33:28.538Z,27.43
2019-02-06T18:36:01.209Z,24.97
2019-02-06T18:38:55.833Z,29.10
2019-02-06T18:41:38.190Z,21.73
2019-02-06T18:44:09.955Z,22.03
2019-02-06T18:46:44.985Z,22.67
2019-02-06T18:49:28.792Z,19.50
2019-02-06T18:52:20.413Z,22.17
2019-02-06T18:55:05.548Z,22.67
2019-02-06T18:58:06.297Z,24.03
2019-02-06T19:01:20.893Z,22.50
2019-02-06T19:04:36.642Z,24.50
2019-02-06T19:07:29.222Z,25.87
2019-02-06T19:09:59.909Z,21.60
2019-02-06T19:12:30.688Z,21.20
2019-02-06T19:15:02.042Z,19.03
2019-02-06T19:17:35.845Z,23.07
2019-02-06T19:20:09.204Z,22.77
2019-02-06T19:22:39.822Z,19.60
2019-02-06T19:25:12.089Z,19.53
2019-02-06T19:30:57.670Z,17.50
2019-02-06T19:33:28.349Z,22.50
2019-02-06T19:36:01.943Z,21.50
2019-02-06T19:38:32.823Z,27.33
2019-02-06T19:41:04.520Z,23.90
2019-02-06T19:43:35.958Z,22.63
2019-02-06T19:46:07.614Z,21.77
2019-02-06T19:48:38.864Z,20.70
2019-02-06T19:51:12.846Z,22.27
2019-02-06T19:53:43.435Z,24.63
2019-02-06T19:56:16.965Z,21.30
2019-02-06T19:59:20.496Z,23.57
2019-02-06T20:09:49.530Z,23.63
2019-02-06T20:13:12.466Z,22.30
2019-02-06T20:15:50.079Z,21.27
2019-02-06T20:18:47.891Z,20.40
2019-02-06T20:22:02.813Z,22.33
2019-02-06T20:25:26.133Z,22.50
2019-02-06T20:28:39.221Z,20.73
2019-02-06T20:35:44.478Z,21.90
2019-02-06T20:41:28.992Z,27.73
2019-02-06T20:44:01.787Z,23.17
2019-02-06T20:46:34.799Z,24.00
2019-02-06T20:49:05.827Z,24.53
2019-02-06T20:51:36.519Z,23.73
2019-02-06T20:54:07.333Z,23.63
2019-02-06T20:56:38.336Z,23.17
2019-02-06T20:59:08.964Z,25.10
2019-02-06T21:01:39.763Z,29.67
2019-02-06T21:04:10.630Z,25.27
2019-02-06T21:06:41.434Z,35.33
2019-02-06T21:09:18.888Z,25.40
2019-02-06T21:11:49.786Z,31.00
2019-02-06T21:14:21.948Z,27.77
2019-02-06T21:16:53.522Z,28.03
2019-02-06T21:19:24.337Z,25.73
2019-02-06T21:21:55.133Z,27.47
2019-02-06T21:24:26.024Z,25.83
2019-02-06T21:26:56.833Z,25.13
2019-02-06T21:29:27.372Z,29.10
2019-02-06T21:31:57.863Z,28.33
2019-02-06T21:34:28.212Z,22.60
2019-02-06T21:36:59.293Z,22.27
2019-02-06T21:39:29.891Z,21.33
2019-02-06T21:42:00.404Z,19.73
2019-02-06T21:44:31.601Z,23.83
2019-02-06T21:47:07.097Z,17.60
2019-02-06T21:49:37.896Z,19.40
2019-02-06T21:52:08.570Z,20.90
2019-02-06T21:54:38.928Z,25.33
2019-02-06T21:57:09.328Z,16.93
2019-02-06T21:59:39.676Z,23.27
2019-02-06T22:02:10.371Z,20.07
2019-02-06T22:04:40.772Z,19.43
2019-02-06T22:07:11.369Z,21.57
2019-02-06T22:09:42.162Z,22.10
2019-02-06T22:12:12.582Z,20.97
2019-02-06T22:14:43.226Z,24.40
2019-02-06T22:17:14.454Z,19.57
2019-02-06T22:19:46.160Z,20.40
2019-02-06T22:22:16.687Z,18.77
2019-02-06T22:24:47.277Z,20.73
2019-02-06T22:27:17.769Z,22.33
2019-02-06T22:29:48.176Z,22.37
2019-02-06T22:32:18.973Z,22.50
2019-02-06T22:34:49.625Z,17.90
2019-02-06T22:37:20.805Z,15.30
2019-02-06T22:39:51.403Z,10.23
2019-02-06T22:42:22.066Z,18.97
2019-02-06T22:44:52.522Z,17.83
2019-02-06T22:47:22.876Z,17.00
2019-02-06T22:49:53.348Z,21.40
2019-02-06T22:52:24.487Z,16.57
2019-02-06T22:54:56.303Z,18.97
2019-02-06T22:57:27.404Z,18.43
2019-02-06T22:59:58.010Z,17.77
2019-02-06T23:02:31.928Z,19.07
2019-02-06T23:05:02.415Z,18.20
2019-02-06T23:07:33.268Z,19.17
2019-02-06T23:10:03.739Z,18.03
2019-02-06T23:12:34.302Z,16.93
2019-02-06T23:15:05.176Z,17.13
2019-02-06T23:17:35.572Z,18.93
2019-02-06T23:20:07.903Z,18.93
2019-02-06T23:22:38.302Z,15.23
2019-02-06T23:25:09.041Z,20.80
2019-02-06T23:27:39.350Z,20.67
2019-02-06T23:30:10.962Z,17.17
2019-02-06T23:32:41.981Z,15.83
2019-02-06T23:35:12.518Z,20.47
2019-02-06T23:37:43.469Z,17.80
2019-02-06T23:40:14.486Z,18.77
2019-02-06T23:42:44.776Z,19.33
2019-02-06T23:45:15.496Z,18.07
2019-02-06T23:47:46.179Z,16.90
2019-02-06T23:50:16.572Z,16.27
2019-02-06T23:52:47.082Z,19.03
2019-02-06T23:55:17.546Z,17.30
2019-02-06T23:57:48.882Z,17.70
